sensor_id;sensor_type;location;lat;lon;timestamp;pressure;altitude;pressure_sealevel;temperature;humidity
62600;BME280;48671;48.922;2.346;2023-05-19T00:00:38;102187.69;;;14.29;48.88
62600;BME280;48671;48.922;2.346;2023-05-19T00:03:04;102208.41;;;14.37;49.07
62600;BME280;48671;48.922;2.346;2023-05-19T00:05:38;102194.00;;;14.22;48.32
62600;BME280;48671;48.922;2.346;2023-05-19T00:08:10;102196.78;;;14.17;50.80
62600;BME280;48671;48.922;2.346;2023-05-19T00:10:36;102194.34;;;14.11;51.22
62600;BME280;48671;48.922;2.346;2023-05-19T00:13:05;102199.66;;;14.08;49.86
62600;BME280;48671;48.922;2.346;2023-05-19T00:15:31;102195.66;;;13.96;50.17
62600;BME280;48671;48.922;2.346;2023-05-19T00:17:56;102193.03;;;13.96;51.73
62600;BME280;48671;48.922;2.346;2023-05-19T00:20:27;102195.78;;;13.92;50.30
62600;BME280;48671;48.922;2.346;2023-05-19T00:23:00;102209.72;;;13.92;51.35
62600;BME280;48671;48.922;2.346;2023-05-19T00:25:28;102222.53;;;14.01;51.25
62600;BME280;48671;48.922;2.346;2023-05-19T00:27:56;102215.00;;;13.91;51.59
62600;BME280;48671;48.922;2.346;2023-05-19T00:30:28;102205.22;;;13.97;51.38
62600;BME280;48671;48.922;2.346;2023-05-19T00:32:53;102185.56;;;13.82;52.13
62600;BME280;48671;48.922;2.346;2023-05-19T00:35:32;102212.25;;;13.95;52.15
62600;BME280;48671;48.922;2.346;2023-05-19T00:38:20;102182.94;;;13.84;51.45
62600;BME280;48671;48.922;2.346;2023-05-19T00:44:02;102208.19;;;13.85;52.39
62600;BME280;48671;48.922;2.346;2023-05-19T00:46:38;102206.50;;;13.82;52.24
62600;BME280;48671;48.922;2.346;2023-05-19T00:49:34;102179.72;;;13.74;51.52
62600;BME280;48671;48.922;2.346;2023-05-19T00:52:27;102180.63;;;13.73;52.34
62600;BME280;48671;48.922;2.346;2023-05-19T00:55:15;102209.03;;;13.86;51.87
62600;BME280;48671;48.922;2.346;2023-05-19T00:57:45;102194.50;;;13.75;52.40
62600;BME280;48671;48.922;2.346;2023-05-19T01:00:12;102202.31;;;13.77;52.51
62600;BME280;48671;48.922;2.346;2023-05-19T01:02:37;102187.69;;;13.70;52.93
62600;BME280;48671;48.922;2.346;2023-05-19T01:05:05;102205.97;;;13.71;52.61
62600;BME280;48671;48.922;2.346;2023-05-19T01:07:31;102194.72;;;13.68;53.23
62600;BME280;48671;48.922;2.346;2023-05-19T01:09:57;102178.25;;;13.64;53.09
62600;BME280;48671;48.922;2.346;2023-05-19T01:12:25;102193.19;;;13.61;53.08
62600;BME280;48671;48.922;2.346;2023-05-19T01:14:51;102177.81;;;13.48;53.03
62600;BME280;48671;48.922;2.346;2023-05-19T01:17:29;102168.38;;;13.43;52.64
62600;BME280;48671;48.922;2.346;2023-05-19T01:28:51;102174.91;;;13.28;53.47
62600;BME280;48671;48.922;2.346;2023-05-19T01:31:20;102166.41;;;13.18;54.06
62600;BME280;48671;48.922;2.346;2023-05-19T01:33:49;102162.28;;;13.09;55.24
62600;BME280;48671;48.922;2.346;2023-05-19T01:36:18;102159.72;;;13.08;54.54
62600;BME280;48671;48.922;2.346;2023-05-19T01:38:45;102169.09;;;13.15;54.70
62600;BME280;48671;48.922;2.346;2023-05-19T01:41:14;102151.06;;;13.04;54.80
62600;BME280;48671;48.922;2.346;2023-05-19T01:43:41;102180.25;;;13.22;54.72
62600;BME280;48671;48.922;2.346;2023-05-19T01:46:07;102152.88;;;13.02;54.91
62600;BME280;48671;48.922;2.346;2023-05-19T01:48:33;102169.28;;;13.07;54.81
62600;BME280;48671;48.922;2.346;2023-05-19T01:50:59;102163.22;;;13.07;54.69
62600;BME280;48671;48.922;2.346;2023-05-19T01:53:25;102170.16;;;13.08;54.78
62600;BME280;48671;48.922;2.346;2023-05-19T01:55:56;102164.28;;;13.00;54.31
62600;BME280;48671;48.922;2.346;2023-05-19T02:09:22;102186.94;;;12.99;55.14
62600;BME280;48671;48.922;2.346;2023-05-19T02:11:55;102159.56;;;12.80;55.20
62600;BME280;48671;48.922;2.346;2023-05-19T02:14:29;102171.59;;;12.85;55.59
62600;BME280;48671;48.922;2.346;2023-05-19T02:17:24;102155.22;;;12.79;55.13
62600;BME280;48671;48.922;2.346;2023-05-19T02:19:51;102160.41;;;12.80;55.47
62600;BME280;48671;48.922;2.346;2023-05-19T02:22:17;102165.69;;;12.77;55.77
62600;BME280;48671;48.922;2.346;2023-05-19T02:24:42;102151.94;;;12.71;55.48
62600;BME280;48671;48.922;2.346;2023-05-19T02:27:09;102158.22;;;12.62;56.44
62600;BME280;48671;48.922;2.346;2023-05-19T02:29:34;102154.88;;;12.57;55.80
62600;BME280;48671;48.922;2.346;2023-05-19T02:32:00;102170.47;;;12.60;56.18
62600;BME280;48671;48.922;2.346;2023-05-19T02:34:26;102177.41;;;12.62;56.42
62600;BME280;48671;48.922;2.346;2023-05-19T02:36:51;102146.34;;;12.50;56.04
62600;BME280;48671;48.922;2.346;2023-05-19T02:39:17;102171.13;;;12.68;55.38
62600;BME280;48671;48.922;2.346;2023-05-19T02:41:42;102150.78;;;12.47;56.15
62600;BME280;48671;48.922;2.346;2023-05-19T02:44:10;102151.66;;;12.46;56.48
62600;BME280;48671;48.922;2.346;2023-05-19T02:46:41;102183.56;;;12.58;56.44
62600;BME280;48671;48.922;2.346;2023-05-19T02:49:07;102165.34;;;12.55;56.40
62600;BME280;48671;48.922;2.346;2023-05-19T02:51:42;102167.97;;;12.55;56.14
62600;BME280;48671;48.922;2.346;2023-05-19T02:54:08;102154.13;;;12.52;56.60
62600;BME280;48671;48.922;2.346;2023-05-19T02:56:38;102160.19;;;12.54;56.86
62600;BME280;48671;48.922;2.346;2023-05-19T02:59:18;102160.13;;;12.55;56.36
62600;BME280;48671;48.922;2.346;2023-05-19T03:01:44;102145.59;;;12.45;56.28
62600;BME280;48671;48.922;2.346;2023-05-19T03:04:12;102146.59;;;12.39;57.11
62600;BME280;48671;48.922;2.346;2023-05-19T03:06:38;102134.63;;;12.31;56.57
62600;BME280;48671;48.922;2.346;2023-05-19T03:09:09;102151.06;;;12.34;56.63
62600;BME280;48671;48.922;2.346;2023-05-19T03:11:34;102169.97;;;12.44;56.42
62600;BME280;48671;48.922;2.346;2023-05-19T03:14:02;102151.00;;;12.36;57.16
62600;BME280;48671;48.922;2.346;2023-05-19T03:16:30;102152.00;;;12.32;56.13
62600;BME280;48671;48.922;2.346;2023-05-19T03:18:56;102142.66;;;12.22;56.25
62600;BME280;48671;48.922;2.346;2023-05-19T03:21:22;102163.41;;;12.28;57.83
62600;BME280;48671;48.922;2.346;2023-05-19T03:23:48;102171.19;;;12.29;56.53
62600;BME280;48671;48.922;2.346;2023-05-19T03:26:13;102145.59;;;12.06;57.20
62600;BME280;48671;48.922;2.346;2023-05-19T03:28:43;102167.91;;;12.19;57.51
62600;BME280;48671;48.922;2.346;2023-05-19T03:31:09;102157.72;;;12.09;57.84
62600;BME280;48671;48.922;2.346;2023-05-19T03:33:34;102160.31;;;12.10;57.50
62600;BME280;48671;48.922;2.346;2023-05-19T03:36:06;102169.91;;;12.08;57.98
62600;BME280;48671;48.922;2.346;2023-05-19T03:38:34;102158.56;;;12.09;57.29
62600;BME280;48671;48.922;2.346;2023-05-19T03:41:00;102144.91;;;11.98;57.78
62600;BME280;48671;48.922;2.346;2023-05-19T03:43:25;102150.06;;;12.01;58.10
62600;BME280;48671;48.922;2.346;2023-05-19T03:45:51;102152.81;;;11.95;57.98
62600;BME280;48671;48.922;2.346;2023-05-19T03:48:18;102151.00;;;11.99;57.94
62600;BME280;48671;48.922;2.346;2023-05-19T03:50:44;102155.53;;;11.90;57.98
62600;BME280;48671;48.922;2.346;2023-05-19T03:53:09;102165.00;;;11.94;58.12
62600;BME280;48671;48.922;2.346;2023-05-19T03:55:35;102160.91;;;11.81;58.83
62600;BME280;48671;48.922;2.346;2023-05-19T03:58:02;102153.06;;;11.81;57.49
62600;BME280;48671;48.922;2.346;2023-05-19T04:00:32;102156.53;;;11.82;57.94
62600;BME280;48671;48.922;2.346;2023-05-19T04:02:58;102157.38;;;11.84;58.39
62600;BME280;48671;48.922;2.346;2023-05-19T04:05:27;102168.66;;;11.86;58.08
62600;BME280;48671;48.922;2.346;2023-05-19T04:07:58;102165.19;;;11.85;58.22
62600;BME280;48671;48.922;2.346;2023-05-19T04:10:23;102160.84;;;11.83;57.86
62600;BME280;48671;48.922;2.346;2023-05-19T04:12:51;102187.63;;;11.92;58.41
62600;BME280;48671;48.922;2.346;2023-05-19T04:15:19;102168.84;;;11.75;58.65
62600;BME280;48671;48.922;2.346;2023-05-19T04:17:49;102157.69;;;11.68;58.10
62600;BME280;48671;48.922;2.346;2023-05-19T04:20:22;102155.25;;;11.61;58.81
62600;BME280;48671;48.922;2.346;2023-05-19T04:22:48;102149.13;;;11.62;59.05
62600;BME280;48671;48.922;2.346;2023-05-19T04:25:15;102156.03;;;11.63;58.91
62600;BME280;48671;48.922;2.346;2023-05-19T04:27:44;102186.25;;;11.75;58.96
62600;BME280;48671;48.922;2.346;2023-05-19T04:30:13;102182.72;;;11.76;58.47
62600;BME280;48671;48.922;2.346;2023-05-19T04:32:41;102160.53;;;11.56;58.53
62600;BME280;48671;48.922;2.346;2023-05-19T04:35:09;102173.34;;;11.67;58.62
62600;BME280;48671;48.922;2.346;2023-05-19T04:37:34;102168.28;;;11.59;58.93
62600;BME280;48671;48.922;2.346;2023-05-19T04:40:02;102177.69;;;11.66;58.88
62600;BME280;48671;48.922;2.346;2023-05-19T04:42:37;102179.44;;;11.67;58.42
62600;BME280;48671;48.922;2.346;2023-05-19T04:45:06;102178.50;;;11.70;58.91
62600;BME280;48671;48.922;2.346;2023-05-19T04:47:33;102147.50;;;11.56;58.80
62600;BME280;48671;48.922;2.346;2023-05-19T04:50:11;102159.56;;;11.60;58.26
62600;BME280;48671;48.922;2.346;2023-05-19T04:52:39;102185.50;;;11.68;58.94
62600;BME280;48671;48.922;2.346;2023-05-19T04:55:06;102170.78;;;11.64;58.63
62600;BME280;48671;48.922;2.346;2023-05-19T04:57:49;102196.44;;;11.87;58.26
62600;BME280;48671;48.922;2.346;2023-05-19T05:00:20;102188.59;;;11.87;58.37
62600;BME280;48671;48.922;2.346;2023-05-19T05:02:57;102198.91;;;11.94;58.26
62600;BME280;48671;48.922;2.346;2023-05-19T05:09:20;102190.38;;;11.86;58.22
62600;BME280;48671;48.922;2.346;2023-05-19T05:11:54;102185.09;;;11.89;57.89
62600;BME280;48671;48.922;2.346;2023-05-19T05:14:52;102180.72;;;11.90;57.75
62600;BME280;48671;48.922;2.346;2023-05-19T05:21:11;102208.69;;;12.25;57.51
62600;BME280;48671;48.922;2.346;2023-05-19T05:23:48;102196.59;;;12.21;56.97
62600;BME280;48671;48.922;2.346;2023-05-19T05:33:10;102202.94;;;12.50;56.48
62600;BME280;48671;48.922;2.346;2023-05-19T05:35:36;102196.03;;;12.46;56.17
62600;BME280;48671;48.922;2.346;2023-05-19T05:38:01;102220.03;;;12.61;55.92
62600;BME280;48671;48.922;2.346;2023-05-19T05:40:27;102211.44;;;12.58;56.21
62600;BME280;48671;48.922;2.346;2023-05-19T05:42:52;102199.38;;;12.52;56.13
62600;BME280;48671;48.922;2.346;2023-05-19T05:45:23;102193.28;;;12.52;56.16
62600;BME280;48671;48.922;2.346;2023-05-19T05:47:48;102225.19;;;12.64;56.20
62600;BME280;48671;48.922;2.346;2023-05-19T05:50:14;102216.59;;;12.61;55.93
62600;BME280;48671;48.922;2.346;2023-05-19T05:52:40;102231.28;;;12.65;56.04
62600;BME280;48671;48.922;2.346;2023-05-19T05:55:07;102213.13;;;12.60;55.82
62600;BME280;48671;48.922;2.346;2023-05-19T05:57:32;102210.50;;;12.60;56.08
62600;BME280;48671;48.922;2.346;2023-05-19T06:00:01;102201.59;;;12.69;55.65
62600;BME280;48671;48.922;2.346;2023-05-19T06:02:27;102204.09;;;12.74;55.33
62600;BME280;48671;48.922;2.346;2023-05-19T06:04:52;102210.25;;;12.71;55.13
62600;BME280;48671;48.922;2.346;2023-05-19T06:07:18;102210.09;;;12.79;55.10
62600;BME280;48671;48.922;2.346;2023-05-19T06:09:44;102235.75;;;12.97;55.41
62600;BME280;48671;48.922;2.346;2023-05-19T06:12:09;102223.38;;;13.04;55.30
62600;BME280;48671;48.922;2.346;2023-05-19T06:14:35;102220.75;;;13.05;54.64
62600;BME280;48671;48.922;2.346;2023-05-19T06:17:01;102217.28;;;13.05;55.12
62600;BME280;48671;48.922;2.346;2023-05-19T06:19:29;102217.03;;;13.14;54.78
62600;BME280;48671;48.922;2.346;2023-05-19T06:21:54;102229.78;;;13.28;54.43
62600;BME280;48671;48.922;2.346;2023-05-19T06:24:23;102227.31;;;13.20;54.37
62600;BME280;48671;48.922;2.346;2023-05-19T06:26:48;102225.56;;;13.21;54.32
62600;BME280;48671;48.922;2.346;2023-05-19T06:29:13;102232.34;;;13.29;53.85
62600;BME280;48671;48.922;2.346;2023-05-19T06:31:39;102231.63;;;13.24;54.42
62600;BME280;48671;48.922;2.346;2023-05-19T06:34:04;102215.09;;;13.21;54.15
62600;BME280;48671;48.922;2.346;2023-05-19T06:36:30;102223.66;;;13.29;54.48
62600;BME280;48671;48.922;2.346;2023-05-19T06:38:56;102225.97;;;13.40;54.17
62600;BME280;48671;48.922;2.346;2023-05-19T06:41:21;102192.06;;;13.37;53.98
62600;BME280;48671;48.922;2.346;2023-05-19T06:43:47;102224.50;;;13.64;53.80
62600;BME280;48671;48.922;2.346;2023-05-19T06:46:12;102216.53;;;13.67;53.47
62600;BME280;48671;48.922;2.346;2023-05-19T06:48:38;102223.09;;;13.81;54.16
62600;BME280;48671;48.922;2.346;2023-05-19T06:51:03;102219.09;;;13.99;53.16
62600;BME280;48671;48.922;2.346;2023-05-19T06:53:29;102218.03;;;14.07;53.31
62600;BME280;48671;48.922;2.346;2023-05-19T06:55:54;102197.91;;;14.09;53.43
62600;BME280;48671;48.922;2.346;2023-05-19T06:58:20;102213.97;;;14.26;53.06
62600;BME280;48671;48.922;2.346;2023-05-19T07:00:45;102219.34;;;14.49;53.11
62600;BME280;48671;48.922;2.346;2023-05-19T07:03:10;102216.50;;;14.59;52.60
62600;BME280;48671;48.922;2.346;2023-05-19T07:05:36;102206.72;;;14.64;52.22
62600;BME280;48671;48.922;2.346;2023-05-19T07:08:01;102196.84;;;14.72;51.98
62600;BME280;48671;48.922;2.346;2023-05-19T07:10:27;102189.59;;;14.80;51.67
62600;BME280;48671;48.922;2.346;2023-05-19T07:12:52;102198.50;;;15.01;51.40
62600;BME280;48671;48.922;2.346;2023-05-19T07:15:18;102206.22;;;15.06;51.71
62600;BME280;48671;48.922;2.346;2023-05-19T07:17:43;102211.94;;;15.17;50.97
62600;BME280;48671;48.922;2.346;2023-05-19T07:20:09;102212.97;;;15.13;50.67
62600;BME280;48671;48.922;2.346;2023-05-19T07:22:35;102198.19;;;15.10;50.59
62600;BME280;48671;48.922;2.346;2023-05-19T07:25:01;102197.22;;;15.13;50.74
62600;BME280;48671;48.922;2.346;2023-05-19T07:27:26;102206.25;;;15.31;50.79
62600;BME280;48671;48.922;2.346;2023-05-19T07:29:51;102205.16;;;15.36;50.53
62600;BME280;48671;48.922;2.346;2023-05-19T07:32:17;102194.75;;;15.33;50.30
62600;BME280;48671;48.922;2.346;2023-05-19T07:34:42;102191.47;;;15.28;50.40
62600;BME280;48671;48.922;2.346;2023-05-19T07:37:08;102204.47;;;15.31;50.12
62600;BME280;48671;48.922;2.346;2023-05-19T07:39:34;102195.75;;;15.31;49.99
62600;BME280;48671;48.922;2.346;2023-05-19T07:41:59;102197.13;;;15.41;50.21
62600;BME280;48671;48.922;2.346;2023-05-19T07:44:25;102195.28;;;15.43;49.87
62600;BME280;48671;48.922;2.346;2023-05-19T07:46:51;102185.09;;;15.35;49.70
62600;BME280;48671;48.922;2.346;2023-05-19T07:49:16;102198.94;;;15.39;49.99
62600;BME280;48671;48.922;2.346;2023-05-19T07:51:42;102190.78;;;15.46;50.27
62600;BME280;48671;48.922;2.346;2023-05-19T07:54:07;102191.47;;;15.53;49.66
62600;BME280;48671;48.922;2.346;2023-05-19T07:56:33;102186.88;;;15.58;50.24
62600;BME280;48671;48.922;2.346;2023-05-19T07:58:58;102190.03;;;15.70;49.57
62600;BME280;48671;48.922;2.346;2023-05-19T08:01:23;102191.56;;;15.75;49.78
62600;BME280;48671;48.922;2.346;2023-05-19T08:03:49;102198.88;;;15.90;50.23
62600;BME280;48671;48.922;2.346;2023-05-19T08:06:14;102184.44;;;16.02;50.27
62600;BME280;48671;48.922;2.346;2023-05-19T08:08:39;102190.50;;;16.26;49.85
62600;BME280;48671;48.922;2.346;2023-05-19T08:11:06;102181.25;;;16.38;49.62
62600;BME280;48671;48.922;2.346;2023-05-19T08:13:32;102184.25;;;16.51;49.02
62600;BME280;48671;48.922;2.346;2023-05-19T08:15:58;102172.78;;;16.53;48.89
62600;BME280;48671;48.922;2.346;2023-05-19T08:18:25;102168.94;;;16.62;49.20
62600;BME280;48671;48.922;2.346;2023-05-19T08:20:51;102171.34;;;16.67;48.02
62600;BME280;48671;48.922;2.346;2023-05-19T08:23:16;102173.94;;;16.68;48.53
62600;BME280;48671;48.922;2.346;2023-05-19T08:25:42;102180.97;;;16.68;48.31
62600;BME280;48671;48.922;2.346;2023-05-19T08:28:07;102173.34;;;16.61;48.06
62600;BME280;48671;48.922;2.346;2023-05-19T08:30:33;102173.59;;;16.55;48.36
62600;BME280;48671;48.922;2.346;2023-05-19T08:32:58;102176.25;;;16.54;47.93
62600;BME280;48671;48.922;2.346;2023-05-19T08:35:24;102176.88;;;16.60;49.18
62600;BME280;48671;48.922;2.346;2023-05-19T08:37:49;102173.53;;;16.79;47.48
62600;BME280;48671;48.922;2.346;2023-05-19T08:40:16;102164.91;;;16.75;47.60
62600;BME280;48671;48.922;2.346;2023-05-19T08:42:45;102166.56;;;16.78;47.59
62600;BME280;48671;48.922;2.346;2023-05-19T08:45:11;102172.22;;;16.89;48.45
62600;BME280;48671;48.922;2.346;2023-05-19T08:47:37;102157.97;;;17.15;48.38
62600;BME280;48671;48.922;2.346;2023-05-19T08:50:05;102168.28;;;17.40;47.38
62600;BME280;48671;48.922;2.346;2023-05-19T08:52:51;102153.56;;;17.55;46.48
62600;BME280;48671;48.922;2.346;2023-05-19T08:57:50;102149.59;;;17.65;46.17
62600;BME280;48671;48.922;2.346;2023-05-19T09:00:16;102129.25;;;17.69;46.67
62600;BME280;48671;48.922;2.346;2023-05-19T09:02:42;102146.81;;;17.89;46.93
62600;BME280;48671;48.922;2.346;2023-05-19T09:05:09;102136.75;;;17.97;46.40
62600;BME280;48671;48.922;2.346;2023-05-19T09:07:35;102137.44;;;18.19;45.98
62600;BME280;48671;48.922;2.346;2023-05-19T09:10:02;102141.84;;;18.38;45.94
62600;BME280;48671;48.922;2.346;2023-05-19T09:12:28;102135.44;;;18.61;45.48
62600;BME280;48671;48.922;2.346;2023-05-19T09:14:54;102120.91;;;18.69;46.33
62600;BME280;48671;48.922;2.346;2023-05-19T09:17:19;102116.00;;;18.81;45.51
62600;BME280;48671;48.922;2.346;2023-05-19T09:19:45;102117.81;;;18.96;44.93
62600;BME280;48671;48.922;2.346;2023-05-19T09:22:14;102117.19;;;19.08;44.45
62600;BME280;48671;48.922;2.346;2023-05-19T09:24:40;102125.56;;;19.16;43.77
62600;BME280;48671;48.922;2.346;2023-05-19T09:27:06;102103.59;;;19.16;44.47
62600;BME280;48671;48.922;2.346;2023-05-19T09:29:32;102117.28;;;19.40;44.38
62600;BME280;48671;48.922;2.346;2023-05-19T09:31:58;102116.13;;;19.61;42.01
62600;BME280;48671;48.922;2.346;2023-05-19T09:34:26;102102.78;;;19.64;41.74
62600;BME280;48671;48.922;2.346;2023-05-19T09:36:52;102090.53;;;19.63;42.66
62600;BME280;48671;48.922;2.346;2023-05-19T09:39:22;102095.63;;;19.67;41.96
62600;BME280;48671;48.922;2.346;2023-05-19T09:41:52;102106.28;;;19.81;42.70
62600;BME280;48671;48.922;2.346;2023-05-19T09:44:22;102094.44;;;19.88;40.44
62600;BME280;48671;48.922;2.346;2023-05-19T09:46:52;102103.28;;;20.03;41.59
62600;BME280;48671;48.922;2.346;2023-05-19T09:49:25;102100.19;;;20.26;43.03
62600;BME280;48671;48.922;2.346;2023-05-19T09:51:54;102103.28;;;20.49;41.83
62600;BME280;48671;48.922;2.346;2023-05-19T09:54:21;102089.38;;;20.61;40.16
62600;BME280;48671;48.922;2.346;2023-05-19T09:56:57;102097.81;;;20.68;38.06
62600;BME280;48671;48.922;2.346;2023-05-19T09:59:23;102096.13;;;20.67;40.41
62600;BME280;48671;48.922;2.346;2023-05-19T10:01:53;102103.22;;;20.80;38.82
62600;BME280;48671;48.922;2.346;2023-05-19T10:04:20;102117.13;;;20.98;39.05
62600;BME280;48671;48.922;2.346;2023-05-19T10:06:49;102097.75;;;20.98;39.10
62600;BME280;48671;48.922;2.346;2023-05-19T10:09:23;102100.88;;;21.04;38.48
62600;BME280;48671;48.922;2.346;2023-05-19T10:11:53;102094.66;;;21.20;38.34
62600;BME280;48671;48.922;2.346;2023-05-19T10:14:24;102083.97;;;21.21;38.26
62600;BME280;48671;48.922;2.346;2023-05-19T10:16:50;102087.31;;;21.39;38.65
62600;BME280;48671;48.922;2.346;2023-05-19T10:19:19;102094.47;;;21.51;38.51
62600;BME280;48671;48.922;2.346;2023-05-19T10:21:45;102081.78;;;21.57;37.92
62600;BME280;48671;48.922;2.346;2023-05-19T10:24:11;102107.97;;;21.76;36.72
62600;BME280;48671;48.922;2.346;2023-05-19T10:26:38;102083.38;;;21.73;37.57
62600;BME280;48671;48.922;2.346;2023-05-19T10:29:04;102075.72;;;21.69;37.71
62600;BME280;48671;48.922;2.346;2023-05-19T10:31:30;102093.06;;;21.87;38.03
62600;BME280;48671;48.922;2.346;2023-05-19T10:34:22;102098.88;;;22.07;37.36
62600;BME280;48671;48.922;2.346;2023-05-19T10:39:28;102079.28;;;22.24;35.69
62600;BME280;48671;48.922;2.346;2023-05-19T10:42:35;102083.59;;;22.25;35.80
62600;BME280;48671;48.922;2.346;2023-05-19T10:45:12;102087.44;;;22.33;35.11
62600;BME280;48671;48.922;2.346;2023-05-19T10:47:41;102090.13;;;22.46;36.44
62600;BME280;48671;48.922;2.346;2023-05-19T10:50:07;102078.16;;;22.53;35.93
62600;BME280;48671;48.922;2.346;2023-05-19T10:52:36;102065.22;;;22.61;34.99
62600;BME280;48671;48.922;2.346;2023-05-19T10:55:02;102078.72;;;22.84;34.03
62600;BME280;48671;48.922;2.346;2023-05-19T10:57:29;102077.22;;;22.93;35.20
62600;BME280;48671;48.922;2.346;2023-05-19T10:59:58;102081.41;;;23.09;34.53
62600;BME280;48671;48.922;2.346;2023-05-19T11:02:43;102082.03;;;23.13;33.63
62600;BME280;48671;48.922;2.346;2023-05-19T11:05:13;102057.16;;;22.88;33.94
62600;BME280;48671;48.922;2.346;2023-05-19T11:07:54;102051.97;;;22.74;34.43
62600;BME280;48671;48.922;2.346;2023-05-19T11:10:23;102057.56;;;22.82;34.57
62600;BME280;48671;48.922;2.346;2023-05-19T11:12:49;102057.31;;;23.00;33.83
62600;BME280;48671;48.922;2.346;2023-05-19T11:15:15;102043.47;;;22.82;33.88
62600;BME280;48671;48.922;2.346;2023-05-19T11:17:42;102066.59;;;22.67;34.19
62600;BME280;48671;48.922;2.346;2023-05-19T11:20:22;102050.88;;;22.51;34.55
62600;BME280;48671;48.922;2.346;2023-05-19T11:23:07;102055.44;;;22.62;35.16
62600;BME280;48671;48.922;2.346;2023-05-19T11:25:50;102065.09;;;22.37;35.00
62600;BME280;48671;48.922;2.346;2023-05-19T11:28:19;102049.38;;;22.34;34.37
62600;BME280;48671;48.922;2.346;2023-05-19T11:30:46;102058.72;;;22.53;35.68
62600;BME280;48671;48.922;2.346;2023-05-19T11:33:14;102032.75;;;22.71;33.90
62600;BME280;48671;48.922;2.346;2023-05-19T11:35:45;102027.97;;;22.88;33.87
62600;BME280;48671;48.922;2.346;2023-05-19T11:38:10;102038.38;;;23.17;32.72
62600;BME280;48671;48.922;2.346;2023-05-19T11:40:37;102037.16;;;23.34;34.11
62600;BME280;48671;48.922;2.346;2023-05-19T11:43:03;102031.69;;;23.61;31.45
62600;BME280;48671;48.922;2.346;2023-05-19T11:45:30;102027.59;;;23.81;31.82
62600;BME280;48671;48.922;2.346;2023-05-19T11:47:57;102024.31;;;23.77;31.96
62600;BME280;48671;48.922;2.346;2023-05-19T11:50:23;102025.31;;;23.88;33.25
62600;BME280;48671;48.922;2.346;2023-05-19T11:52:50;102018.25;;;23.63;32.14
62600;BME280;48671;48.922;2.346;2023-05-19T11:55:19;102022.84;;;23.24;32.68
62600;BME280;48671;48.922;2.346;2023-05-19T11:58:01;102021.00;;;23.37;33.03
62600;BME280;48671;48.922;2.346;2023-05-19T12:00:29;102014.59;;;23.52;32.26
62600;BME280;48671;48.922;2.346;2023-05-19T12:02:55;102005.41;;;23.32;32.71
62600;BME280;48671;48.922;2.346;2023-05-19T12:05:25;101996.75;;;23.05;32.72
62600;BME280;48671;48.922;2.346;2023-05-19T12:07:52;102007.47;;;23.16;33.07
62600;BME280;48671;48.922;2.346;2023-05-19T12:10:22;102002.81;;;23.44;32.74
62600;BME280;48671;48.922;2.346;2023-05-19T12:12:47;101975.22;;;23.57;32.29
62600;BME280;48671;48.922;2.346;2023-05-19T12:15:17;101996.19;;;23.86;33.06
62600;BME280;48671;48.922;2.346;2023-05-19T12:17:44;101982.22;;;23.95;31.24
62600;BME280;48671;48.922;2.346;2023-05-19T12:20:11;101994.38;;;23.87;31.45
62600;BME280;48671;48.922;2.346;2023-05-19T12:22:36;101975.22;;;24.05;31.68
62600;BME280;48671;48.922;2.346;2023-05-19T12:25:02;101987.75;;;24.39;31.26
62600;BME280;48671;48.922;2.346;2023-05-19T12:27:29;101984.31;;;24.49;30.36
62600;BME280;48671;48.922;2.346;2023-05-19T12:29:55;101990.75;;;24.69;30.01
62600;BME280;48671;48.922;2.346;2023-05-19T12:32:25;101984.19;;;24.85;30.66
62600;BME280;48671;48.922;2.346;2023-05-19T12:34:51;101996.25;;;25.11;29.81
62600;BME280;48671;48.922;2.346;2023-05-19T12:37:17;101979.09;;;25.27;29.91
62600;BME280;48671;48.922;2.346;2023-05-19T12:39:43;101986.94;;;25.39;29.65
62600;BME280;48671;48.922;2.346;2023-05-19T12:42:10;101975.97;;;25.21;30.00
62600;BME280;48671;48.922;2.346;2023-05-19T12:44:49;101972.56;;;25.19;30.80
62600;BME280;48671;48.922;2.346;2023-05-19T12:47:17;101981.66;;;25.28;29.11
62600;BME280;48671;48.922;2.346;2023-05-19T12:49:53;101990.44;;;25.40;29.48
62600;BME280;48671;48.922;2.346;2023-05-19T12:52:19;101972.19;;;25.35;28.74
62600;BME280;48671;48.922;2.346;2023-05-19T12:54:47;101972.78;;;25.28;28.84
62600;BME280;48671;48.922;2.346;2023-05-19T12:57:15;101956.94;;;25.04;28.37
62600;BME280;48671;48.922;2.346;2023-05-19T12:59:41;101960.09;;;24.97;28.93
62600;BME280;48671;48.922;2.346;2023-05-19T13:02:07;101957.44;;;25.09;29.06
62600;BME280;48671;48.922;2.346;2023-05-19T13:04:32;101975.19;;;25.31;29.35
62600;BME280;48671;48.922;2.346;2023-05-19T13:06:57;101959.22;;;25.31;28.69
62600;BME280;48671;48.922;2.346;2023-05-19T13:09:23;101959.19;;;25.42;29.07
62600;BME280;48671;48.922;2.346;2023-05-19T13:11:48;101967.75;;;25.57;28.85
62600;BME280;48671;48.922;2.346;2023-05-19T13:14:16;101954.16;;;25.60;27.64
62600;BME280;48671;48.922;2.346;2023-05-19T13:16:43;101943.75;;;25.57;28.66
62600;BME280;48671;48.922;2.346;2023-05-19T13:19:11;101957.00;;;25.47;28.62
62600;BME280;48671;48.922;2.346;2023-05-19T13:21:36;101960.63;;;25.57;29.22
62600;BME280;48671;48.922;2.346;2023-05-19T13:24:02;101951.03;;;25.55;28.11
62600;BME280;48671;48.922;2.346;2023-05-19T13:26:29;101959.31;;;25.73;28.05
62600;BME280;48671;48.922;2.346;2023-05-19T13:28:54;101936.41;;;25.81;28.04
62600;BME280;48671;48.922;2.346;2023-05-19T13:31:19;101941.13;;;25.78;28.14
62600;BME280;48671;48.922;2.346;2023-05-19T13:33:45;101922.47;;;25.78;26.74
62600;BME280;48671;48.922;2.346;2023-05-19T13:36:10;101937.59;;;25.88;27.30
62600;BME280;48671;48.922;2.346;2023-05-19T13:38:35;101926.41;;;25.95;27.17